Time;durP1;ratioP1;P1;durP2;ratioP2;P2;SDS_P1;SDS_P2;PMS_P1;PMS_P2;Temp;Humidity;BMP_temperature;BMP_pressure;BME280_temperature;BME280_humidity;BME280_pressure;Samples;Min_cycle;Max_cycle;Signal;HPM_P1;HPM_P2
2023/09/30 00:00:05;;;;;;;3.40;1.70;;;25.50;39.50;;;;;;4974200;28;21002;-53
2023/09/30 00:02:30;;;;;;;3.60;1.10;;;25.40;39.50;;;;;;4974013;28;20910;-52
2023/09/30 00:04:56;;;;;;;8.50;2.23;;;25.40;40.10;;;;;;4974330;28;20418;-53
2023/09/30 00:07:22;;;;;;;2.57;1.60;;;25.30;39.80;;;;;;4974184;28;20657;-51
2023/09/30 00:09:48;;;;;;;7.07;2.70;;;25.30;40.10;;;;;;4974067;28;20172;-52
2023/09/30 00:12:14;;;;;;;2.33;1.07;;;25.20;40.00;;;;;;4974165;28;20238;-54
2023/09/30 00:14:39;;;;;;;5.03;1.30;;;25.20;40.30;;;;;;4973841;28;20682;-53
2023/09/30 00:17:05;;;;;;;2.43;1.40;;;25.20;40.60;;;;;;4973944;28;20172;-53
2023/09/30 00:19:32;;;;;;;4.43;1.97;;;25.10;40.60;;;;;;4974024;28;20172;-53
2023/09/30 00:21:59;;;;;;;2.73;1.70;;;25.10;40.40;;;;;;4973827;28;20176;-53
2023/09/30 00:24:26;;;;;;;3.13;1.50;;;25.00;41.10;;;;;;4973948;28;20967;-53
2023/09/30 00:26:51;;;;;;;2.20;1.40;;;25.00;41.00;;;;;;4973723;28;20438;-51
2023/09/30 00:29:17;;;;;;;2.13;1.07;;;24.90;41.50;;;;;;4973658;28;20435;-53
2023/09/30 00:31:44;;;;;;;4.53;0.73;;;24.80;41.80;;;;;;4973835;28;20168;-53
2023/09/30 00:34:10;;;;;;;1.67;0.90;;;24.80;42.40;;;;;;4973523;28;20486;-54
2023/09/30 00:36:35;;;;;;;1.63;0.57;;;24.70;42.20;;;;;;4973163;28;20499;-53
2023/09/30 00:39:01;;;;;;;1.30;0.67;;;24.60;42.90;;;;;;4973462;28;20887;-52
2023/09/30 00:41:27;;;;;;;1.40;0.90;;;24.60;43.00;;;;;;4973538;28;20218;-54
2023/09/30 00:43:53;;;;;;;1.30;0.73;;;24.60;43.10;;;;;;4973441;28;20502;-52
2023/09/30 00:46:31;;;;;;;1.83;0.77;;;24.50;43.20;;;;;;4973662;28;20249;-54
2023/09/30 00:48:58;;;;;;;1.47;0.70;;;24.40;43.60;;;;;;4973473;28;20195;-52
2023/09/30 00:51:26;;;;;;;1.50;0.90;;;24.40;44.70;;;;;;4973516;28;20411;-52
2023/09/30 00:53:54;;;;;;;1.20;0.80;;;24.40;43.90;;;;;;4973221;28;20407;-52
2023/09/30 00:56:23;;;;;;;1.93;0.97;;;24.30;44.50;;;;;;4973339;28;20466;-52
2023/09/30 00:58:51;;;;;;;1.17;0.60;;;24.30;44.40;;;;;;4973281;28;20519;-51
2023/09/30 01:01:19;;;;;;;3.63;0.80;;;24.20;44.50;;;;;;4973338;28;20482;-53
2023/09/30 01:03:46;;;;;;;1.67;0.80;;;24.20;45.20;;;;;;4973242;28;20412;-51
2023/09/30 01:06:13;;;;;;;1.50;0.80;;;24.10;45.50;;;;;;4973209;28;20408;-52
2023/09/30 01:08:39;;;;;;;1.00;0.40;;;24.10;44.70;;;;;;4973382;28;20441;-51
2023/09/30 01:11:05;;;;;;;1.10;0.50;;;24.10;44.70;;;;;;4973351;28;20467;-51
2023/09/30 01:13:38;;;;;;;1.20;0.53;;;24.00;44.40;;;;;;4973195;28;20431;-54
2023/09/30 01:16:11;;;;;;;1.47;0.50;;;23.90;44.20;;;;;;4973126;28;20451;-52
2023/09/30 01:18:38;;;;;;;1.10;0.43;;;24.00;44.50;;;;;;4973060;28;20459;-52
2023/09/30 01:21:06;;;;;;;1.00;0.40;;;23.90;44.30;;;;;;4973178;28;20917;-50
2023/09/30 01:23:32;;;;;;;1.03;0.40;;;23.80;44.50;;;;;;4973019;28;20403;-51
2023/09/30 01:26:00;;;;;;;1.70;0.77;;;23.60;44.50;;;;;;4973073;28;20419;-53
2023/09/30 01:28:26;;;;;;;1.00;0.30;;;23.50;44.50;;;;;;4971802;28;20494;-52
2023/09/30 01:30:52;;;;;;;1.20;0.50;;;23.40;45.10;;;;;;4972966;28;20416;-52
2023/09/30 01:33:18;;;;;;;1.20;0.60;;;23.40;45.00;;;;;;4972777;28;20404;-53
2023/09/30 01:35:45;;;;;;;1.10;0.60;;;23.30;45.20;;;;;;4973170;28;20222;-51
2023/09/30 01:38:10;;;;;;;2.27;0.80;;;23.20;45.50;;;;;;4973074;28;20486;-52
2023/09/30 01:40:37;;;;;;;1.10;0.50;;;23.10;45.30;;;;;;4972964;28;20403;-51
2023/09/30 01:43:03;;;;;;;1.10;0.47;;;23.10;45.40;;;;;;4972669;28;20180;-51
2023/09/30 01:45:29;;;;;;;1.20;0.70;;;23.00;45.20;;;;;;4972973;28;20415;-50
2023/09/30 01:47:55;;;;;;;1.00;0.33;;;23.00;45.00;;;;;;4975798;28;21008;-51
2023/09/30 01:50:21;;;;;;;1.37;0.80;;;23.00;45.10;;;;;;4976926;28;20499;-51
2023/09/30 01:52:46;;;;;;;1.10;0.60;;;23.00;45.20;;;;;;4976646;28;20262;-52
2023/09/30 01:55:12;;;;;;;1.00;0.30;;;23.00;44.90;;;;;;4976559;28;20196;-52
2023/09/30 01:57:38;;;;;;;1.03;0.40;;;23.00;44.90;;;;;;4976586;28;20196;-54
2023/09/30 02:00:12;;;;;;;1.00;0.30;;;22.90;45.40;;;;;;4976599;28;21125;-53
2023/09/30 02:02:38;;;;;;;2.17;1.00;;;22.90;45.50;;;;;;4976644;28;20503;-54
2023/09/30 02:05:05;;;;;;;1.20;0.63;;;22.90;45.90;;;;;;4976433;28;20414;-54
2023/09/30 02:07:30;;;;;;;1.00;0.50;;;22.90;45.70;;;;;;4976556;28;20510;-52
2023/09/30 02:09:57;;;;;;;1.30;0.80;;;22.80;46.80;;;;;;4976472;28;20782;-52
2023/09/30 02:12:23;;;;;;;1.20;0.67;;;22.70;46.40;;;;;;4976136;28;20490;-54
2023/09/30 02:14:48;;;;;;;1.27;0.73;;;22.60;46.70;;;;;;4976086;28;20558;-52
2023/09/30 02:17:14;;;;;;;1.83;0.60;;;22.60;46.80;;;;;;4976141;28;20172;-51
2023/09/30 02:19:40;;;;;;;1.60;0.70;;;22.60;46.70;;;;;;4974951;28;20183;-51
2023/09/30 02:22:06;;;;;;;1.10;0.60;;;22.50;47.50;;;;;;4976079;28;20168;-50
2023/09/30 02:24:32;;;;;;;1.97;0.60;;;22.50;47.10;;;;;;4975969;28;20562;-53
2023/09/30 02:26:58;;;;;;;1.30;0.93;;;22.50;47.10;;;;;;4975852;28;20431;-52
2023/09/30 02:29:24;;;;;;;1.70;1.03;;;22.50;47.10;;;;;;4975879;28;20474;-50
2023/09/30 02:31:50;;;;;;;1.03;0.47;;;22.50;47.40;;;;;;4975876;28;20247;-51
2023/09/30 02:34:16;;;;;;;2.30;0.73;;;22.50;47.00;;;;;;4975875;28;20287;-52
2023/09/30 02:36:42;;;;;;;1.00;0.50;;;22.40;46.30;;;;;;4976044;28;20969;-52
2023/09/30 02:39:11;;;;;;;1.03;0.40;;;22.30;45.90;;;;;;4975981;28;20223;-53
2023/09/30 02:41:37;;;;;;;1.50;0.60;;;22.30;46.00;;;;;;4975722;28;20234;-52
2023/09/30 02:44:04;;;;;;;2.70;0.70;;;22.30;45.80;;;;;;4975434;28;20420;-51
2023/09/30 02:46:29;;;;;;;1.10;0.50;;;22.20;45.60;;;;;;4975737;28;20439;-51
2023/09/30 02:48:55;;;;;;;2.53;1.53;;;22.20;45.40;;;;;;4975821;28;20719;-51
2023/09/30 02:51:21;;;;;;;1.20;0.60;;;22.20;45.30;;;;;;4975582;28;20666;-51
2023/09/30 02:53:48;;;;;;;1.20;0.63;;;22.20;45.20;;;;;;4975333;28;20187;-52
2023/09/30 02:56:14;;;;;;;1.30;0.77;;;22.20;44.90;;;;;;4975451;28;20246;-51
2023/09/30 02:58:40;;;;;;;1.30;0.80;;;22.20;45.00;;;;;;4974645;28;20450;-51
2023/09/30 03:01:06;;;;;;;1.30;0.87;;;22.20;45.00;;;;;;4975473;28;20415;-51
2023/09/30 03:03:33;;;;;;;1.40;1.00;;;22.20;45.00;;;;;;4975249;28;20963;-51
2023/09/30 03:06:00;;;;;;;1.10;0.53;;;22.10;44.80;;;;;;4975371;28;20415;-52
2023/09/30 03:08:26;;;;;;;1.97;0.97;;;22.10;44.50;;;;;;4975331;28;20465;-50
2023/09/30 03:10:52;;;;;;;1.10;0.53;;;22.00;44.50;;;;;;4975132;28;20826;-50
2023/09/30 03:13:21;;;;;;;1.10;0.50;;;22.00;44.30;;;;;;4975069;28;20466;-55
2023/09/30 03:15:49;;;;;;;1.10;0.60;;;22.10;43.70;;;;;;4975377;28;20459;-55
2023/09/30 03:18:17;;;;;;;1.20;0.80;;;21.90;43.50;;;;;;4975255;28;20435;-52
2023/09/30 03:20:43;;;;;;;1.90;1.47;;;21.90;43.20;;;;;;4975073;28;20411;-54
2023/09/30 03:23:10;;;;;;;1.80;1.00;;;21.90;42.30;;;;;;4974871;28;20902;-54
2023/09/30 03:25:36;;;;;;;6.17;0.97;;;21.80;41.50;;;;;;4974839;28;20446;-53
2023/09/30 03:28:02;;;;;;;1.67;0.80;;;21.70;41.30;;;;;;4974897;28;20521;-54
2023/09/30 03:30:29;;;;;;;1.90;1.10;;;21.70;41.00;;;;;;4975060;28;20414;-54
2023/09/30 03:32:55;;;;;;;3.03;0.80;;;21.60;41.10;;;;;;4974742;28;21103;-54
2023/09/30 03:35:21;;;;;;;5.70;1.00;;;21.50;40.20;;;;;;4974789;28;20439;-55
2023/09/30 03:37:48;;;;;;;1.57;0.70;;;21.50;40.80;;;;;;4973513;28;20346;-55
2023/09/30 03:40:18;;;;;;;1.40;0.90;;;21.50;40.90;;;;;;4974520;28;20414;-54
2023/09/30 03:42:44;;;;;;;2.27;0.90;;;21.50;40.80;;;;;;4974986;28;20412;-54
2023/09/30 03:45:13;;;;;;;1.10;0.57;;;21.40;40.50;;;;;;4974653;28;20404;-55
2023/09/30 03:47:40;;;;;;;1.80;0.97;;;21.40;40.20;;;;;;4974493;28;20933;-54
2023/09/30 03:50:13;;;;;;;1.23;0.53;;;21.30;40.10;;;;;;4974501;28;20455;-54
2023/09/30 03:52:39;;;;;;;2.50;0.70;;;21.20;40.30;;;;;;4974330;28;20447;-54
2023/09/30 03:55:05;;;;;;;1.83;0.93;;;21.30;40.70;;;;;;4974285;28;20475;-54
2023/09/30 03:57:33;;;;;;;1.37;0.70;;;21.20;40.60;;;;;;4974405;28;20423;-54
2023/09/30 04:00:00;;;;;;;4.30;1.60;;;21.30;40.50;;;;;;4974320;28;20495;-55
2023/09/30 04:02:26;;;;;;;1.30;0.60;;;21.20;40.50;;;;;;4974152;28;20940;-52
2023/09/30 04:04:55;;;;;;;1.50;0.70;;;21.20;39.90;;;;;;4974370;28;20187;-54
2023/09/30 04:07:21;;;;;;;1.10;0.43;;;21.10;40.30;;;;;;4974101;28;20187;-55
2023/09/30 04:09:47;;;;;;;2.30;0.70;;;21.10;41.60;;;;;;4973416;28;20410;-52
2023/09/30 04:12:13;;;;;;;1.50;1.00;;;21.10;40.40;;;;;;4973985;28;20270;-51
2023/09/30 04:14:39;;;;;;;1.30;0.60;;;21.10;40.70;;;;;;4973938;28;20517;-56
2023/09/30 04:17:05;;;;;;;1.63;0.60;;;21.10;40.70;;;;;;4974012;28;20660;-53
2023/09/30 04:19:30;;;;;;;1.83;0.80;;;21.10;40.70;;;;;;4973921;28;20453;-53
2023/09/30 04:21:57;;;;;;;5.07;1.07;;;21.10;40.80;;;;;;4973757;28;20200;-52
2023/09/30 04:24:22;;;;;;;2.00;1.10;;;21.10;40.80;;;;;;4974013;28;20259;-55
2023/09/30 04:26:50;;;;;;;1.93;0.90;;;21.00;40.50;;;;;;4973883;28;20570;-53
2023/09/30 04:29:16;;;;;;;1.03;0.50;;;21.00;40.50;;;;;;4973712;28;20213;-50
2023/09/30 04:31:43;;;;;;;2.10;1.40;;;20.90;40.60;;;;;;4973787;28;20406;-54
2023/09/30 04:34:09;;;;;;;1.10;0.50;;;20.90;40.90;;;;;;4973585;28;20408;-55
2023/09/30 04:36:35;;;;;;;3.10;2.40;;;20.80;40.80;;;;;;4973624;28;20555;-55
2023/09/30 04:39:01;;;;;;;1.53;1.10;;;20.80;41.60;;;;;;4973532;28;20318;-54
2023/09/30 04:41:27;;;;;;;1.30;0.67;;;20.70;41.20;;;;;;4973661;28;20184;-54
2023/09/30 04:43:52;;;;;;;1.30;0.67;;;20.70;41.30;;;;;;4973521;28;20410;-51
2023/09/30 04:46:23;;;;;;;1.87;1.63;;;20.70;41.40;;;;;;4972310;28;20208;-54
2023/09/30 04:48:48;;;;;;;1.17;0.53;;;20.60;41.20;;;;;;4973498;28;20247;-53
2023/09/30 04:51:18;;;;;;;1.87;1.37;;;20.50;41.30;;;;;;4973401;28;20411;-52
2023/09/30 04:53:45;;;;;;;5.30;0.90;;;20.50;41.40;;;;;;4973481;28;20214;-52
2023/09/30 04:56:12;;;;;;;1.20;0.70;;;20.50;41.50;;;;;;4973648;28;20451;-55
2023/09/30 04:58:38;;;;;;;4.20;0.77;;;20.50;41.50;;;;;;4973352;28;20439;-55
2023/09/30 05:01:04;;;;;;;10.63;0.73;;;20.50;41.50;;;;;;4973395;28;20407;-52
2023/09/30 05:03:29;;;;;;;3.20;1.33;;;20.50;41.50;;;;;;4973175;28;20172;-51
2023/09/30 05:05:56;;;;;;;1.50;0.80;;;20.50;41.80;;;;;;4973322;28;20183;-54
2023/09/30 05:08:25;;;;;;;2.90;2.33;;;20.50;41.60;;;;;;4973259;28;20188;-52
2023/09/30 05:10:55;;;;;;;3.13;1.50;;;20.50;42.00;;;;;;4973140;28;20184;-52
2023/09/30 05:13:23;;;;;;;1.45;0.85;;;20.50;41.90;;;;;;4973014;28;20419;-54
2023/09/30 05:15:50;;;;;;;1.27;0.60;;;20.50;42.20;;;;;;4973104;28;20207;-52
2023/09/30 05:18:15;;;;;;;1.23;0.57;;;20.50;42.10;;;;;;4973157;28;20196;-51
2023/09/30 05:20:41;;;;;;;1.43;0.80;;;20.40;42.00;;;;;;4973338;28;20414;-51
2023/09/30 05:23:07;;;;;;;1.20;0.90;;;20.50;42.40;;;;;;4976652;28;20684;-55
2023/09/30 05:25:32;;;;;;;1.50;1.00;;;20.50;42.10;;;;;;4977210;28;20234;-52
2023/09/30 05:27:58;;;;;;;1.60;0.93;;;20.50;42.20;;;;;;4977201;28;20582;-55
2023/09/30 05:30:24;;;;;;;1.10;0.60;;;20.50;42.50;;;;;;4977114;28;20259;-54
2023/09/30 05:32:52;;;;;;;1.30;0.87;;;20.50;42.10;;;;;;4976800;28;20208;-51
2023/09/30 05:35:18;;;;;;;5.47;0.60;;;20.60;42.30;;;;;;4977109;28;20208;-53
2023/09/30 05:37:47;;;;;;;6.27;1.00;;;20.50;42.20;;;;;;4976829;28;20989;-50
2023/09/30 05:40:22;;;;;;;2.33;1.30;;;20.50;42.20;;;;;;4977047;28;20419;-51
2023/09/30 05:42:49;;;;;;;5.83;1.23;;;20.60;42.30;;;;;;4976848;28;20434;-52
2023/09/30 05:45:15;;;;;;;1.52;0.90;;;20.60;42.20;;;;;;4976719;28;20422;-53
2023/09/30 05:47:41;;;;;;;1.20;0.80;;;20.60;42.50;;;;;;4976724;28;20201;-52
2023/09/30 05:50:17;;;;;;;1.20;0.70;;;20.60;42.10;;;;;;4976718;28;20255;-53
2023/09/30 05:52:44;;;;;;;2.95;1.88;;;20.50;42.30;;;;;;4976617;28;20270;-52
2023/09/30 05:55:10;;;;;;;1.00;0.40;;;20.50;42.40;;;;;;4976611;28;20670;-53
2023/09/30 05:57:36;;;;;;;1.13;0.60;;;20.50;42.80;;;;;;4976595;28;20207;-52
2023/09/30 06:00:28;;;;;;;1.10;0.60;;;20.50;42.60;;;;;;4976445;28;20547;-51
2023/09/30 06:02:52;;;;;;;1.10;0.70;;;20.50;42.80;;;;;;4976254;28;20170;-52
2023/09/30 06:05:18;;;;;;;3.00;1.43;;;20.50;43.20;;;;;;4976633;28;20184;-54
2023/09/30 06:07:51;;;;;;;5.00;0.75;;;20.50;43.20;;;;;;4976409;28;20192;-51
2023/09/30 06:10:20;;;;;;;1.20;0.77;;;20.50;43.20;;;;;;4976254;28;20184;-51
2023/09/30 06:12:54;;;;;;;4.95;1.33;;;20.60;43.10;;;;;;4976170;28;20180;-52
2023/09/30 06:15:21;;;;;;;1.52;1.10;;;20.60;43.30;;;;;;4976443;28;20215;-52
2023/09/30 06:17:51;;;;;;;2.95;1.27;;;20.60;43.20;;;;;;4976109;28;20224;-49
2023/09/30 06:20:18;;;;;;;2.43;0.87;;;20.60;43.20;;;;;;4976121;28;20180;-52
2023/09/30 06:22:49;;;;;;;3.67;1.08;;;20.60;43.10;;;;;;4975960;28;20407;-49
2023/09/30 06:25:16;;;;;;;3.47;1.20;;;20.60;43.10;;;;;;4974922;28;20194;-52
2023/09/30 06:27:46;;;;;;;1.38;0.90;;;20.60;43.40;;;;;;4975916;28;20237;-50
2023/09/30 06:30:13;;;;;;;1.83;0.95;;;20.50;43.20;;;;;;4976082;28;20188;-49
2023/09/30 06:32:40;;;;;;;4.38;1.38;;;20.50;43.60;;;;;;4975271;28;20189;-51
2023/09/30 06:35:08;;;;;;;1.77;0.70;;;20.60;43.60;;;;;;4975523;28;20566;-52
2023/09/30 06:37:39;;;;;;;1.83;0.93;;;20.50;43.60;;;;;;4975538;28;20274;-50
2023/09/30 06:40:11;;;;;;;3.63;1.00;;;20.60;43.40;;;;;;4975771;28;20813;-53
2023/09/30 06:42:37;;;;;;;1.52;0.70;;;20.50;43.50;;;;;;4975565;28;20439;-51
2023/09/30 06:45:06;;;;;;;3.53;0.77;;;20.50;43.90;;;;;;4975663;28;20207;-52
2023/09/30 06:47:39;;;;;;;2.45;1.30;;;20.50;44.00;;;;;;4975572;28;20470;-50
2023/09/30 06:50:10;;;;;;;1.50;0.77;;;20.50;44.30;;;;;;4975654;28;20203;-52
2023/09/30 06:52:39;;;;;;;1.23;0.73;;;20.60;43.90;;;;;;4975429;28;20188;-51
2023/09/30 06:55:06;;;;;;;1.63;0.93;;;20.60;43.80;;;;;;4975504;28;20207;-49
2023/09/30 06:57:39;;;;;;;1.52;0.65;;;20.70;43.70;;;;;;4975506;28;20267;-52
2023/09/30 07:00:11;;;;;;;3.33;1.00;;;20.70;43.60;;;;;;4975450;28;20377;-50
2023/09/30 07:02:38;;;;;;;1.63;0.95;;;20.70;44.10;;;;;;4975306;28;21016;-49
2023/09/30 07:05:11;;;;;;;6.85;1.00;;;20.70;43.30;;;;;;4975518;28;20235;-51
2023/09/30 07:07:37;;;;;;;3.30;1.77;;;20.80;43.30;;;;;;4975343;28;20924;-50
2023/09/30 07:10:04;;;;;;;1.10;0.50;;;20.80;43.50;;;;;;4975364;28;20188;-52
2023/09/30 07:12:31;;;;;;;1.02;0.52;;;20.70;43.20;;;;;;4975127;28;20424;-50
2023/09/30 07:14:57;;;;;;;1.40;0.70;;;20.80;43.50;;;;;;4975113;28;20196;-50
2023/09/30 07:17:23;;;;;;;1.40;0.77;;;20.80;43.20;;;;;;4975102;28;20184;-53
2023/09/30 07:19:50;;;;;;;1.47;0.80;;;20.80;43.60;;;;;;4975055;28;20779;-54
2023/09/30 07:22:16;;;;;;;1.10;0.60;;;20.90;43.50;;;;;;4975132;28;20200;-50
2023/09/30 07:24:42;;;;;;;1.50;0.97;;;21.00;43.10;;;;;;4974966;28;20455;-53
2023/09/30 07:27:08;;;;;;;3.00;1.40;;;21.20;42.80;;;;;;4974796;28;20458;-50
2023/09/30 07:29:33;;;;;;;1.83;0.80;;;21.20;42.70;;;;;;4974831;28;20594;-53
2023/09/30 07:31:59;;;;;;;1.30;0.70;;;21.30;42.50;;;;;;4974918;28;20179;-51
2023/09/30 07:34:25;;;;;;;3.90;1.03;;;21.30;41.50;;;;;;4974625;28;20263;-52
2023/09/30 07:36:51;;;;;;;1.40;0.83;;;21.30;42.10;;;;;;4974754;28;20213;-55
2023/09/30 07:39:17;;;;;;;10.53;0.87;;;21.30;41.80;;;;;;4974726;28;20283;-53
2023/09/30 07:41:43;;;;;;;1.60;0.97;;;21.30;41.70;;;;;;4974898;28;20534;-53
2023/09/30 07:44:09;;;;;;;3.20;1.00;;;21.30;42.20;;;;;;4974247;28;20648;-50
2023/09/30 07:46:35;;;;;;;2.20;1.10;;;21.40;42.40;;;;;;4974678;28;20172;-56
2023/09/30 07:49:03;;;;;;;1.13;0.60;;;21.60;42.40;;;;;;4974408;28;20573;-52
2023/09/30 07:51:29;;;;;;;1.10;0.60;;;21.90;42.30;;;;;;4974667;28;20435;-54
2023/09/30 07:53:56;;;;;;;1.10;0.80;;;22.10;41.90;;;;;;4974410;28;20407;-55
2023/09/30 07:56:23;;;;;;;1.83;1.20;;;22.30;41.80;;;;;;4974424;28;20443;-52
2023/09/30 07:58:49;;;;;;;2.13;1.03;;;22.50;41.70;;;;;;4974189;28;20476;-55
2023/09/30 08:01:15;;;;;;;1.50;0.97;;;22.60;40.20;;;;;;4974314;28;20408;-55
2023/09/30 08:03:41;;;;;;;2.63;1.07;;;22.60;40.20;;;;;;4974198;28;20179;-51
2023/09/30 08:06:10;;;;;;;1.83;1.07;;;22.70;39.80;;;;;;4974211;28;20272;-53
2023/09/30 08:08:38;;;;;;;1.53;0.97;;;22.60;39.90;;;;;;4974277;28;20435;-55
2023/09/30 08:11:05;;;;;;;3.30;0.80;;;22.50;39.80;;;;;;4973955;28;20435;-53
2023/09/30 08:13:32;;;;;;;2.80;1.20;;;22.50;39.90;;;;;;4974174;28;20418;-55
2023/09/30 08:15:59;;;;;;;2.57;1.03;;;22.50;39.90;;;;;;4974002;28;20984;-56
2023/09/30 08:18:25;;;;;;;1.40;0.77;;;22.50;39.00;;;;;;4973902;28;20427;-51
2023/09/30 08:20:50;;;;;;;2.17;0.87;;;22.40;38.60;;;;;;4973860;28;20442;-54
2023/09/30 08:23:16;;;;;;;1.40;0.97;;;22.30;39.00;;;;;;4973902;28;20168;-56
2023/09/30 08:25:42;;;;;;;4.03;1.00;;;22.20;39.20;;;;;;4973697;28;20669;-54
2023/09/30 08:28:09;;;;;;;1.27;0.73;;;22.20;38.70;;;;;;4973816;28;20435;-52
2023/09/30 08:30:36;;;;;;;2.07;1.03;;;22.10;39.20;;;;;;4972519;28;20942;-53
2023/09/30 08:33:05;;;;;;;1.33;1.07;;;22.20;39.60;;;;;;4973612;28;20412;-54
2023/09/30 08:35:36;;;;;;;2.93;1.00;;;22.20;39.30;;;;;;4973611;28;20458;-55
2023/09/30 08:38:02;;;;;;;1.10;0.70;;;22.20;38.90;;;;;;4973735;28;20515;-55
2023/09/30 08:40:28;;;;;;;1.87;0.87;;;22.30;38.90;;;;;;4972264;28;20502;-52
2023/09/30 08:42:54;;;;;;;1.10;0.63;;;22.30;39.20;;;;;;4973528;28;20901;-56
2023/09/30 08:45:20;;;;;;;5.37;0.97;;;22.40;38.90;;;;;;4973553;28;20419;-52
2023/09/30 08:47:46;;;;;;;1.93;0.97;;;22.50;39.10;;;;;;4973634;28;20199;-54
2023/09/30 08:50:13;;;;;;;2.00;0.80;;;22.60;38.70;;;;;;4973962;28;20769;-55
2023/09/30 08:52:44;;;;;;;2.43;0.87;;;22.70;38.80;;;;;;4973308;28;20421;-56
2023/09/30 08:55:11;;;;;;;1.43;0.83;;;22.80;38.30;;;;;;4973363;28;20451;-53
2023/09/30 08:57:39;;;;;;;1.40;0.93;;;22.90;38.30;;;;;;4973045;28;20428;-55
2023/09/30 09:00:07;;;;;;;2.03;0.80;;;22.90;37.10;;;;;;4973326;28;20454;-57
2023/09/30 09:02:36;;;;;;;1.30;1.00;;;22.90;36.80;;;;;;4973207;28;20518;-56
2023/09/30 09:05:02;;;;;;;1.30;0.60;;;23.00;37.80;;;;;;4973215;28;21136;-55
2023/09/30 09:07:28;;;;;;;2.37;0.90;;;23.00;37.50;;;;;;4973190;28;20936;-53
2023/09/30 09:10:05;;;;;;;1.37;0.70;;;23.00;37.60;;;;;;4973446;28;20422;-53
2023/09/30 09:12:33;;;;;;;2.63;0.70;;;23.10;37.70;;;;;;4973188;28;20176;-54
2023/09/30 09:14:59;;;;;;;3.83;0.97;;;23.10;37.10;;;;;;4971892;28;20449;-56
2023/09/30 09:17:41;;;;;;;1.33;0.63;;;23.10;36.50;;;;;;4972155;28;20431;-55
2023/09/30 09:20:09;;;;;;;3.20;1.60;;;23.10;37.00;;;;;;4972646;28;20654;-50
2023/09/30 09:22:43;;;;;;;2.33;1.63;;;23.10;37.20;;;;;;4972717;28;20957;-52
2023/09/30 09:25:10;;;;;;;1.77;0.70;;;23.00;36.90;;;;;;4973132;28;20447;-49
2023/09/30 09:27:37;;;;;;;1.40;0.77;;;23.00;37.00;;;;;;4972939;28;20440;-52
2023/09/30 09:30:15;;;;;;;2.23;1.07;;;23.00;37.10;;;;;;4973078;28;20435;-50
2023/09/30 09:33:03;;;;;;;1.20;0.60;;;23.00;37.00;;;;;;4972838;28;20421;-51
2023/09/30 09:35:30;;;;;;;3.30;1.27;;;23.00;36.80;;;;;;4972955;28;20449;-52
2023/09/30 09:38:04;;;;;;;1.37;0.67;;;23.10;37.30;;;;;;4973017;28;20743;-49
2023/09/30 09:40:35;;;;;;;3.77;1.53;;;23.10;37.00;;;;;;4973027;28;20395;-52
2023/09/30 09:43:04;;;;;;;2.33;1.27;;;23.20;37.30;;;;;;4972823;28;20846;-51
2023/09/30 09:45:34;;;;;;;1.30;0.83;;;23.30;37.20;;;;;;4972912;28;20845;-50
2023/09/30 09:48:00;;;;;;;1.67;1.10;;;23.30;36.70;;;;;;4972814;28;20427;-52
2023/09/30 09:50:26;;;;;;;4.77;0.97;;;23.40;36.40;;;;;;4972760;28;20442;-50
2023/09/30 09:52:59;;;;;;;1.43;0.80;;;23.40;36.60;;;;;;4972636;28;20420;-49
2023/09/30 09:55:25;;;;;;;2.47;2.27;;;23.60;36.60;;;;;;4972651;28;20571;-51
2023/09/30 09:57:51;;;;;;;1.77;0.97;;;23.70;36.40;;;;;;4972679;28;20438;-52
2023/09/30 10:00:19;;;;;;;5.10;0.97;;;23.80;35.50;;;;;;4972966;28;20405;-50
2023/09/30 10:02:46;;;;;;;3.10;0.90;;;23.80;35.80;;;;;;4972527;28;20414;-52
2023/09/30 10:05:13;;;;;;;2.80;1.30;;;23.80;35.80;;;;;;4972891;28;20457;-51
2023/09/30 10:07:44;;;;;;;1.50;1.00;;;23.80;35.30;;;;;;4973685;28;20422;-51
2023/09/30 10:10:16;;;;;;;3.53;0.93;;;23.80;35.60;;;;;;4976359;28;20755;-50
2023/09/30 10:12:42;;;;;;;1.40;1.00;;;23.90;35.10;;;;;;4976199;28;20423;-53
2023/09/30 10:15:26;;;;;;;1.10;0.50;;;23.90;35.30;;;;;;4976263;28;20462;-51
2023/09/30 10:18:09;;;;;;;2.13;0.77;;;24.00;34.60;;;;;;4976124;28;20797;-52
2023/09/30 10:20:38;;;;;;;1.30;0.70;;;24.00;34.50;;;;;;4976332;28;20768;-50
2023/09/30 10:23:19;;;;;;;3.13;1.07;;;23.90;34.50;;;;;;4976107;28;20419;-54
2023/09/30 10:25:49;;;;;;;1.10;0.50;;;23.80;32.70;;;;;;4976108;28;20427;-50
2023/09/30 10:28:37;;;;;;;5.33;1.27;;;23.70;32.90;;;;;;4976014;28;20471;-52
2023/09/30 10:31:13;;;;;;;2.30;0.93;;;23.60;33.00;;;;;;4975835;28;20415;-50
2023/09/30 10:34:04;;;;;;;2.50;0.80;;;23.60;32.80;;;;;;4975716;28;20443;-52
2023/09/30 10:36:41;;;;;;;2.50;0.67;;;23.70;33.50;;;;;;4975912;28;20459;-50
2023/09/30 10:39:13;;;;;;;2.93;1.27;;;23.80;32.40;;;;;;4975761;28;20481;-53
2023/09/30 10:41:39;;;;;;;1.00;0.37;;;24.00;34.10;;;;;;4976003;28;20424;-50
2023/09/30 10:44:26;;;;;;;3.00;1.57;;;24.20;32.50;;;;;;4975803;28;20442;-52
2023/09/30 10:46:53;;;;;;;1.67;0.63;;;24.40;33.30;;;;;;4975747;28;20176;-53
2023/09/30 10:49:24;;;;;;;3.03;1.33;;;24.70;33.80;;;;;;4975609;28;20957;-48
2023/09/30 10:51:51;;;;;;;1.30;0.70;;;24.80;32.00;;;;;;4975675;28;20407;-50
2023/09/30 10:54:29;;;;;;;1.40;0.97;;;24.90;32.70;;;;;;4975398;28;20408;-52
2023/09/30 10:56:55;;;;;;;6.60;1.20;;;25.00;32.70;;;;;;4975500;28;20877;-51
2023/09/30 10:59:26;;;;;;;1.10;0.60;;;25.10;32.50;;;;;;4975530;28;20428;-53
2023/09/30 11:01:53;;;;;;;1.20;0.60;;;25.20;30.70;;;;;;4975355;28;20407;-51
2023/09/30 11:04:19;;;;;;;1.60;0.73;;;25.20;31.80;;;;;;4975214;28;20751;-51
2023/09/30 11:06:46;;;;;;;2.07;0.73;;;25.30;31.90;;;;;;4975511;28;20418;-51
2023/09/30 11:09:19;;;;;;;1.10;0.53;;;25.40;28.00;;;;;;4975091;28;20449;-52
2023/09/30 11:11:51;;;;;;;2.17;0.70;;;25.40;30.30;;;;;;4975027;28;20462;-49
2023/09/30 11:14:17;;;;;;;4.03;1.33;;;25.30;30.70;;;;;;4975111;28;20411;-52
2023/09/30 11:16:43;;;;;;;1.30;0.50;;;25.40;31.60;;;;;;4975006;28;20450;-54
2023/09/30 11:19:11;;;;;;;1.10;0.50;;;25.50;29.90;;;;;;4974634;28;20432;-50
2023/09/30 11:21:38;;;;;;;2.00;1.00;;;25.60;30.90;;;;;;4974964;28;20422;-49
2023/09/30 11:24:04;;;;;;;1.10;0.57;;;25.70;31.20;;;;;;4974889;28;20408;-53
2023/09/30 11:26:33;;;;;;;5.63;1.87;;;25.70;30.60;;;;;;4974986;28;20454;-49
2023/09/30 11:29:10;;;;;;;2.07;0.70;;;25.70;31.10;;;;;;4974658;28;20427;-52
2023/09/30 11:31:55;;;;;;;1.30;0.63;;;25.50;31.00;;;;;;4974855;28;21094;-51
2023/09/30 11:34:32;;;;;;;1.30;0.97;;;25.40;31.30;;;;;;4974853;28;20821;-54
2023/09/30 11:37:00;;;;;;;1.40;0.90;;;25.40;31.80;;;;;;4974846;28;20402;-50
2023/09/30 11:39:28;;;;;;;2.07;0.67;;;25.40;31.80;;;;;;4974646;28;20423;-50
2023/09/30 11:41:56;;;;;;;4.57;1.87;;;25.40;31.40;;;;;;4974598;28;20426;-52
2023/09/30 11:44:26;;;;;;;3.97;1.27;;;25.30;31.30;;;;;;4974467;28;20416;-50
2023/09/30 11:47:08;;;;;;;2.03;0.90;;;25.30;31.60;;;;;;4974752;28;20415;-50
2023/09/30 11:49:38;;;;;;;3.63;1.20;;;25.40;31.70;;;;;;4974640;28;20407;-51
2023/09/30 11:52:08;;;;;;;1.87;0.60;;;25.40;31.10;;;;;;4974409;28;20403;-50
2023/09/30 11:54:43;;;;;;;1.20;0.60;;;25.30;31.10;;;;;;4974342;28;20435;-52
2023/09/30 11:57:15;;;;;;;2.17;0.90;;;25.30;31.60;;;;;;4974432;28;20410;-49
2023/09/30 11:59:41;;;;;;;1.10;0.70;;;25.10;31.60;;;;;;4974444;28;20415;-49
2023/09/30 12:02:10;;;;;;;1.40;1.17;;;25.00;31.60;;;;;;4974300;28;20992;-54
2023/09/30 12:04:36;;;;;;;1.40;0.83;;;24.90;31.80;;;;;;4974041;28;20534;-51
2023/09/30 12:07:02;;;;;;;2.43;0.93;;;24.80;31.90;;;;;;4974254;28;20419;-49
2023/09/30 12:09:29;;;;;;;4.20;1.07;;;24.80;32.00;;;;;;4974260;28;20486;-53
2023/09/30 12:11:57;;;;;;;1.50;0.93;;;24.70;31.60;;;;;;4974246;28;20184;-52
2023/09/30 12:14:24;;;;;;;1.80;1.20;;;24.60;30.70;;;;;;4973860;28;20822;-52
2023/09/30 12:16:50;;;;;;;1.93;1.00;;;24.60;32.10;;;;;;4973654;28;20459;-52
2023/09/30 12:19:20;;;;;;;2.13;0.63;;;24.70;30.40;;;;;;4973803;28;20431;-51
2023/09/30 12:21:47;;;;;;;1.20;0.67;;;24.90;30.60;;;;;;4973869;28;20454;-50
2023/09/30 12:24:19;;;;;;;1.27;0.70;;;25.10;29.90;;;;;;4973952;28;20403;-51
2023/09/30 12:26:48;;;;;;;1.73;0.63;;;25.20;30.40;;;;;;4973941;28;20485;-52
2023/09/30 12:29:23;;;;;;;1.53;0.60;;;25.40;30.00;;;;;;4973657;28;20466;-51
2023/09/30 12:31:52;;;;;;;1.07;0.50;;;25.50;28.10;;;;;;4973193;28;20413;-50
2023/09/30 12:34:18;;;;;;;1.00;0.37;;;25.70;28.10;;;;;;4973807;28;20440;-53
2023/09/30 12:36:44;;;;;;;1.10;0.50;;;25.80;28.90;;;;;;4973656;28;20561;-52
2023/09/30 12:39:11;;;;;;;1.57;0.50;;;26.00;26.20;;;;;;4973675;28;20419;-51
2023/09/30 12:41:43;;;;;;;1.93;0.90;;;26.00;25.90;;;;;;4973585;28;20612;-51
2023/09/30 12:44:10;;;;;;;3.30;0.80;;;26.00;26.50;;;;;;4973315;28;20414;-49
2023/09/30 12:46:37;;;;;;;2.00;0.83;;;26.00;27.20;;;;;;4973599;28;20763;-50
2023/09/30 12:49:09;;;;;;;2.53;0.70;;;26.00;27.20;;;;;;4973629;28;20489;-53
2023/09/30 12:51:36;;;;;;;1.20;0.60;;;26.00;28.30;;;;;;4973532;28;20437;-49